SKBQ/BAQ METAR and TAF weather

Enter ICAO airport designator
Station Type Date Time Source
SKBQ METAR 2022/06/28 09:00 UTC NOAA

SKBQ 280900Z 16003KT 130V190 6000 VCFG BKN008 25/24 Q1012 BECMG 4000 BR RMK A2990


Station Type Date Time Source
SKBQ Decoded METAR 2022/06/28 09:00 UTC NOAA

Barranquilla / Ernestocortissoz, Colombia (SKBQ) 10-53N 074-47W 30M
Jun 28, 2022 - 05:00 AM EDT / 2022.06.28 0900 UTC
Wind: from the SSE (160 degrees) at 3 MPH (3 KT) (direction variable):0
Visibility: 3 mile(s):0
Sky conditions: mostly cloudy
Weather: fog in the vicinity; mist
Temperature: 77 F (25 C)
Dew Point: 75 F (24 C)
Relative Humidity: 94%
Pressure (altimeter): 29.88 in. Hg (1012 hPa)
ob: SKBQ 280900Z 16003KT 130V190 6000 VCFG BKN008 25/24 Q1012 BECMG 4000 BR RMK A2990
cycle: 9

Station Type Date Time Source
SKBQ TAF 2022/06/28 06:47 UTC NOAA

TAF SKBQ 280430Z 2806/2906 02004KT 9999 SCT015
TEMPO 2807/2810 RA BKN010 PROB40
TEMPO 2810/2812 5000 BR BKN008
TEMPO 2817/2821 5000 TSRA SCT015CB PROB40
TEMPO 2823/2903 RA BKN010 TX30/2817Z TN24/2809Z

Example: see airport list